createdAt,value
2019-03-30T00:00:51.081Z,57.25
2019-03-30T00:03:41.937Z,57.04
2019-03-30T00:06:25.386Z,57.22
2019-03-30T00:09:16.313Z,57.12
2019-03-30T00:11:59.705Z,57.49
2019-03-30T00:14:50.597Z,57.67
2019-03-30T00:17:34.154Z,57.80
2019-03-30T00:20:25.105Z,58.54
2019-03-30T00:23:08.030Z,58.64
2019-03-30T00:25:58.950Z,60.21
2019-03-30T00:28:42.283Z,60.16
2019-03-30T00:31:33.187Z,60.79
2019-03-30T00:34:16.452Z,60.88
2019-03-30T00:37:07.377Z,61.72
2019-03-30T00:39:51.048Z,61.95
2019-03-30T00:42:41.957Z,62.55
2019-03-30T00:45:24.922Z,62.86
2019-03-30T00:48:15.827Z,63.56
2019-03-30T00:50:59.479Z,63.06
2019-03-30T00:53:50.414Z,62.98
2019-03-30T00:56:34.038Z,63.92
2019-03-30T00:59:24.990Z,64.17
2019-03-30T01:02:08.674Z,63.11
2019-03-30T01:04:59.595Z,63.11
2019-03-30T01:07:43.388Z,63.32
2019-03-30T01:10:34.310Z,63.30
2019-03-30T01:13:17.785Z,63.29
2019-03-30T01:16:08.821Z,62.97
2019-03-30T01:18:52.367Z,63.82
2019-03-30T01:21:43.286Z,64.02
2019-03-30T01:24:26.849Z,64.38
2019-03-30T01:27:17.714Z,64.49
2019-03-30T01:30:00.643Z,64.53
2019-03-30T01:32:51.540Z,64.66
2019-03-30T01:35:34.759Z,65.25
2019-03-30T01:38:25.686Z,65.59
2019-03-30T01:41:08.835Z,65.88
2019-03-30T01:43:59.721Z,65.98
2019-03-30T01:46:42.640Z,66.01
2019-03-30T01:49:33.543Z,66.67
2019-03-30T01:52:16.627Z,66.95
2019-03-30T01:55:07.780Z,66.84
2019-03-30T01:57:51.682Z,67.00
2019-03-30T02:00:42.765Z,67.26
2019-03-30T02:03:25.810Z,67.21
2019-03-30T02:06:16.736Z,66.90
2019-03-30T02:08:59.789Z,67.28
2019-03-30T02:11:50.721Z,67.15
2019-03-30T02:14:33.708Z,66.75
2019-03-30T02:17:24.596Z,66.42
2019-03-30T02:20:08.175Z,66.42
2019-03-30T02:22:59.069Z,66.01
2019-03-30T02:25:42.440Z,66.26
2019-03-30T02:28:33.350Z,65.99
2019-03-30T02:31:16.305Z,65.73
2019-03-30T02:34:07.198Z,65.18
2019-03-30T02:36:50.810Z,65.18
2019-03-30T02:39:41.719Z,65.19
2019-03-30T02:42:25.013Z,65.43
2019-03-30T02:45:15.891Z,65.58
2019-03-30T02:47:58.933Z,65.67
2019-03-30T02:50:50.851Z,65.51
2019-03-30T02:53:54.774Z,65.66
2019-03-30T02:56:45.659Z,65.45
2019-03-30T02:59:29.369Z,65.33
2019-03-30T03:02:20.272Z,65.32
2019-03-30T03:05:03.017Z,65.10
2019-03-30T03:07:53.891Z,64.80
2019-03-30T03:10:37.558Z,64.53
2019-03-30T03:13:28.461Z,64.42
2019-03-30T03:16:11.790Z,64.22
2019-03-30T03:18:55.365Z,63.95
2019-03-30T03:21:46.265Z,63.86
2019-03-30T03:24:29.992Z,63.58
2019-03-30T03:27:20.866Z,63.49
2019-03-30T03:30:03.878Z,63.73
2019-03-30T03:32:54.787Z,63.16
2019-03-30T03:35:38.321Z,62.87
2019-03-30T03:38:29.229Z,62.68
2019-03-30T03:41:12.904Z,62.78
2019-03-30T03:44:03.810Z,62.93
2019-03-30T03:46:47.437Z,62.55
2019-03-30T03:49:38.328Z,62.58
2019-03-30T03:52:21.861Z,62.42
2019-03-30T03:55:05.413Z,62.17
2019-03-30T03:57:56.390Z,62.13
2019-03-30T04:00:39.882Z,61.83
2019-03-30T04:04:10.507Z,61.59
2019-03-30T04:06:55.516Z,61.40
2019-03-30T04:13:34.668Z,61.41
2019-03-30T04:16:25.572Z,61.30
2019-03-30T04:19:16.495Z,61.39
2019-03-30T04:22:07.408Z,61.44
2019-03-30T04:24:50.914Z,61.33
2019-03-30T04:27:41.834Z,61.22
2019-03-30T04:30:24.746Z,61.20
2019-03-30T04:33:15.674Z,61.11
2019-03-30T04:35:58.872Z,60.82
2019-03-30T04:38:49.780Z,60.69
2019-03-30T04:41:33.143Z,60.71
2019-03-30T04:44:24.068Z,60.52
2019-03-30T04:47:07.234Z,60.68
2019-03-30T04:49:58.152Z,60.62
2019-03-30T04:52:41.789Z,60.44
2019-03-30T04:55:32.693Z,60.40
2019-03-30T04:58:16.109Z,60.39
2019-03-30T05:01:07.016Z,60.38
2019-03-30T05:03:50.573Z,60.36
2019-03-30T05:06:41.502Z,60.34
2019-03-30T05:09:44.956Z,60.51
2019-03-30T05:12:35.828Z,60.60
2019-03-30T05:15:19.629Z,60.81
2019-03-30T05:18:10.602Z,60.94
2019-03-30T05:20:53.970Z,60.75
2019-03-30T05:23:44.843Z,60.61
2019-03-30T05:26:28.292Z,60.52
2019-03-30T05:29:19.199Z,60.28
2019-03-30T05:32:02.064Z,60.58
2019-03-30T05:34:52.990Z,60.29
2019-03-30T05:37:36.575Z,60.26
2019-03-30T05:40:19.380Z,60.04
2019-03-30T05:43:10.365Z,60.30
2019-03-30T05:45:53.626Z,60.09
2019-03-30T05:48:44.486Z,59.88
2019-03-30T05:51:27.892Z,59.53
2019-03-30T05:54:18.813Z,59.29
2019-03-30T05:57:01.717Z,59.30
2019-03-30T05:59:55.698Z,59.02
2019-03-30T06:02:57.757Z,58.63
2019-03-30T06:05:48.666Z,58.60
2019-03-30T06:11:23.050Z,57.63
2019-03-30T06:14:13.974Z,57.77
2019-03-30T06:16:56.993Z,57.71
2019-03-30T06:19:47.883Z,57.66
2019-03-30T06:22:40.271Z,57.43
2019-03-30T06:25:23.456Z,57.10
2019-03-30T06:28:06.997Z,56.83
2019-03-30T06:30:57.180Z,56.22
2019-03-30T06:33:40.426Z,56.01
2019-03-30T06:36:31.325Z,55.49
2019-03-30T06:39:14.695Z,54.98
2019-03-30T06:42:03.886Z,54.48
2019-03-30T06:44:46.981Z,54.23
2019-03-30T06:47:37.854Z,53.98
2019-03-30T06:50:20.716Z,53.56
2019-03-30T06:53:11.596Z,52.69
2019-03-30T06:55:55.317Z,52.58
2019-03-30T06:58:46.233Z,51.59
2019-03-30T07:01:30.073Z,51.14
2019-03-30T07:04:20.982Z,50.48
2019-03-30T07:07:03.813Z,50.26
2019-03-30T07:13:47.955Z,49.51
2019-03-30T07:16:33.006Z,48.29
2019-03-30T07:23:12.753Z,46.74
2019-03-30T07:26:03.905Z,45.73
2019-03-30T07:28:54.853Z,44.72
2019-03-30T07:31:38.188Z,43.54
2019-03-30T07:34:29.136Z,43.34
2019-03-30T07:40:03.937Z,42.45
2019-03-30T07:42:54.851Z,41.08
2019-03-30T07:45:37.664Z,40.98
2019-03-30T07:48:28.596Z,40.78
2019-03-30T07:51:11.846Z,40.20
2019-03-30T07:54:02.750Z,39.61
2019-03-30T07:59:36.838Z,39.49
2019-03-30T08:02:27.728Z,39.08
2019-03-30T08:05:11.283Z,39.20
2019-03-30T08:08:02.174Z,38.70
2019-03-30T08:10:45.060Z,37.44
2019-03-30T08:13:35.997Z,36.20
2019-03-30T08:16:38.912Z,36.25
2019-03-30T08:19:29.811Z,35.95
2019-03-30T08:22:13.023Z,35.80
2019-03-30T08:24:56.192Z,35.70
2019-03-30T08:27:47.091Z,35.58
2019-03-30T08:33:26.700Z,33.13
2019-03-30T08:36:10.021Z,33.36
2019-03-30T08:38:53.636Z,32.40
2019-03-30T08:41:44.495Z,31.51
2019-03-30T08:44:28.028Z,30.49
2019-03-30T08:47:18.934Z,30.18
2019-03-30T08:50:06.625Z,30.33
2019-03-30T08:52:57.548Z,30.26
2019-03-30T08:55:47.015Z,30.23
2019-03-30T08:58:30.622Z,30.26
2019-03-30T09:01:21.531Z,31.07
2019-03-30T09:04:05.376Z,30.58
2019-03-30T09:06:56.280Z,29.31
2019-03-30T09:09:39.549Z,29.56
2019-03-30T09:12:30.416Z,29.43
2019-03-30T09:15:13.383Z,28.75
2019-03-30T09:18:05.396Z,28.19
2019-03-30T09:20:48.222Z,28.10
2019-03-30T09:23:39.137Z,28.29
2019-03-30T09:26:22.742Z,29.00
2019-03-30T09:29:13.645Z,27.73
2019-03-30T09:32:14.334Z,28.06
2019-03-30T09:35:09.653Z,27.54
2019-03-30T09:38:00.546Z,27.80
2019-03-30T09:40:43.916Z,27.57
2019-03-30T09:43:37.415Z,27.27
2019-03-30T09:46:40.072Z,27.33
2019-03-30T09:49:30.992Z,27.32
2019-03-30T09:52:14.017Z,27.24
2019-03-30T09:55:05.294Z,27.40
2019-03-30T09:57:48.218Z,27.80
2019-03-30T10:00:31.171Z,27.41
2019-03-30T10:03:22.042Z,26.95
2019-03-30T10:06:05.142Z,26.54
2019-03-30T10:08:56.036Z,26.56
2019-03-30T10:11:38.830Z,26.69
2019-03-30T10:14:29.717Z,26.04
2019-03-30T10:17:13.869Z,25.71
2019-03-30T10:23:00.270Z,26.48
2019-03-30T10:25:43.812Z,26.99
2019-03-30T10:28:53.439Z,27.66
2019-03-30T10:31:37.028Z,27.80
2019-03-30T10:34:27.993Z,28.23
2019-03-30T10:37:11.597Z,28.48
2019-03-30T10:40:02.535Z,29.18
2019-03-30T10:42:45.813Z,29.06
2019-03-30T10:45:36.714Z,29.76
2019-03-30T10:48:20.146Z,30.38
2019-03-30T10:51:11.051Z,29.53
2019-03-30T10:53:54.243Z,29.04
2019-03-30T10:56:37.181Z,28.43
2019-03-30T10:59:28.098Z,27.82
2019-03-30T11:02:11.768Z,27.54
2019-03-30T11:05:02.676Z,26.92
2019-03-30T11:07:46.368Z,27.13
2019-03-30T11:10:37.267Z,26.98
2019-03-30T11:13:24.858Z,26.64
2019-03-30T11:16:15.713Z,26.28
2019-03-30T11:19:04.803Z,25.87
2019-03-30T11:21:48.025Z,25.58
2019-03-30T11:24:31.754Z,25.25
2019-03-30T11:27:22.658Z,25.59
2019-03-30T11:30:12.238Z,25.87
2019-03-30T11:32:55.774Z,25.92
2019-03-30T11:35:46.668Z,26.07
2019-03-30T11:38:29.655Z,24.97
2019-03-30T11:41:20.582Z,24.14
2019-03-30T11:44:04.251Z,23.83
2019-03-30T11:46:55.147Z,22.63
2019-03-30T11:49:38.014Z,23.53
2019-03-30T11:52:28.933Z,22.84
2019-03-30T11:55:21.765Z,22.29
2019-03-30T11:57:57.831Z,22.60
2019-03-30T12:00:48.734Z,23.35
2019-03-30T12:03:31.563Z,23.46
2019-03-30T12:06:22.518Z,22.82
2019-03-30T12:09:06.706Z,22.86
2019-03-30T12:11:57.642Z,22.93
2019-03-30T12:14:41.323Z,22.29
2019-03-30T12:17:32.262Z,23.42
2019-03-30T12:20:15.442Z,24.26
2019-03-30T12:23:06.366Z,23.97
2019-03-30T12:25:57.277Z,24.11
2019-03-30T12:28:48.172Z,24.68
2019-03-30T12:31:31.847Z,24.71
2019-03-30T12:34:22.755Z,24.08
2019-03-30T12:37:05.685Z,24.48
2019-03-30T12:39:58.255Z,24.45
2019-03-30T12:43:01.557Z,23.60
2019-03-30T12:45:52.471Z,24.73
2019-03-30T12:48:37.297Z,24.60
2019-03-30T12:51:28.202Z,25.33
2019-03-30T12:54:11.081Z,24.92
2019-03-30T12:57:02.020Z,24.65
2019-03-30T12:59:44.925Z,24.67
2019-03-30T13:09:57.669Z,23.00
2019-03-30T13:12:48.579Z,23.61
2019-03-30T13:15:31.620Z,23.26
2019-03-30T13:18:22.547Z,23.48
2019-03-30T13:21:05.896Z,22.93
2019-03-30T13:23:56.788Z,22.87
2019-03-30T13:26:40.635Z,22.75
2019-03-30T13:29:31.543Z,23.14
2019-03-30T13:32:14.606Z,23.92
2019-03-30T13:35:05.658Z,23.64
2019-03-30T13:37:48.967Z,22.96
2019-03-30T13:40:39.899Z,23.34
2019-03-30T13:43:26.842Z,23.52
2019-03-30T13:46:17.776Z,23.93
2019-03-30T13:49:01.134Z,23.95
2019-03-30T13:51:52.047Z,24.80
2019-03-30T13:54:54.906Z,25.30
2019-03-30T13:57:38.517Z,23.87
2019-03-30T14:00:22.082Z,23.58
2019-03-30T14:03:12.983Z,22.97
2019-03-30T14:05:56.052Z,23.15
2019-03-30T14:08:47.006Z,23.21
2019-03-30T14:11:19.116Z,22.71
2019-03-30T14:14:10.016Z,22.95
2019-03-30T14:16:52.903Z,22.50
2019-03-30T14:19:43.756Z,22.48
2019-03-30T14:22:27.180Z,23.74
2019-03-30T14:25:10.560Z,23.78
2019-03-30T14:28:01.514Z,24.03
2019-03-30T14:30:44.330Z,24.04
2019-03-30T14:33:35.251Z,22.83
2019-03-30T14:36:18.942Z,23.48
2019-03-30T14:39:09.921Z,23.58
2019-03-30T14:42:00.900Z,23.46
2019-03-30T14:44:43.686Z,24.00
2019-03-30T14:47:27.240Z,23.80
2019-03-30T14:50:18.234Z,23.74
2019-03-30T14:53:01.582Z,23.71
2019-03-30T14:55:52.528Z,24.14
2019-03-30T14:58:36.242Z,24.35
2019-03-30T15:01:27.111Z,24.04
2019-03-30T15:04:10.433Z,23.44
2019-03-30T15:07:01.418Z,22.78
2019-03-30T15:09:44.281Z,22.49
2019-03-30T15:12:35.194Z,22.27
2019-03-30T15:15:18.041Z,22.44
2019-03-30T15:18:08.953Z,22.77
2019-03-30T15:20:52.657Z,23.51
2019-03-30T15:23:43.563Z,23.93
2019-03-30T15:26:27.177Z,24.34
2019-03-30T15:29:18.076Z,24.47
2019-03-30T15:32:01.389Z,23.86
2019-03-30T15:34:52.295Z,23.42
2019-03-30T15:37:35.517Z,23.01
2019-03-30T15:40:26.440Z,22.69
2019-03-30T15:43:09.975Z,22.94
2019-03-30T15:46:00.914Z,23.66
2019-03-30T15:48:44.168Z,24.21
2019-03-30T15:51:37.523Z,25.67
2019-03-30T15:54:39.927Z,26.48
2019-03-30T15:57:30.868Z,26.41
2019-03-30T16:00:15.729Z,26.57
2019-03-30T16:03:06.670Z,26.72
2019-03-30T16:06:09.791Z,27.03
2019-03-30T16:09:00.710Z,26.85
2019-03-30T16:11:43.656Z,26.23
2019-03-30T16:14:34.579Z,26.46
2019-03-30T16:17:17.557Z,26.74
2019-03-30T16:20:28.884Z,27.02
2019-03-30T16:23:12.518Z,27.21
2019-03-30T16:26:03.421Z,27.06
2019-03-30T16:29:06.572Z,26.82
2019-03-30T16:32:14.936Z,26.61
2019-03-30T16:34:58.451Z,26.91
2019-03-30T16:37:49.329Z,27.08
2019-03-30T16:40:32.619Z,26.86
2019-03-30T16:43:23.539Z,26.84
2019-03-30T16:46:06.658Z,27.28
2019-03-30T16:48:57.530Z,27.52
2019-03-30T16:51:40.658Z,27.72
2019-03-30T16:54:31.504Z,28.15
2019-03-30T16:57:43.064Z,28.36
2019-03-30T17:04:14.928Z,28.92
2019-03-30T17:07:05.830Z,29.32
2019-03-30T17:09:56.738Z,29.66
2019-03-30T17:12:28.854Z,29.87
2019-03-30T17:15:00.948Z,30.14
2019-03-30T17:17:51.824Z,30.11
2019-03-30T17:20:35.684Z,30.46
2019-03-30T17:23:26.613Z,30.79
2019-03-30T17:26:09.672Z,30.94
2019-03-30T17:29:00.587Z,31.15
2019-03-30T17:31:43.961Z,31.40
2019-03-30T17:34:34.867Z,31.65
2019-03-30T17:37:18.030Z,31.99
2019-03-30T17:40:10.421Z,32.20
2019-03-30T17:42:53.854Z,32.48
2019-03-30T17:45:44.827Z,32.71
2019-03-30T17:48:28.293Z,33.00
2019-03-30T17:51:19.229Z,33.49
2019-03-30T17:54:02.742Z,34.05
2019-03-30T17:56:53.633Z,34.56
2019-03-30T17:59:36.703Z,35.16
2019-03-30T18:02:27.718Z,35.62
2019-03-30T18:05:11.084Z,35.76
2019-03-30T18:08:02.200Z,36.06
2019-03-30T18:10:51.151Z,36.11
2019-03-30T18:13:59.239Z,36.68
2019-03-30T18:16:46.980Z,36.78
2019-03-30T18:19:36.253Z,37.02
2019-03-30T18:25:11.196Z,37.13
2019-03-30T18:28:04.597Z,37.18
2019-03-30T18:30:47.484Z,37.18
2019-03-30T18:33:38.385Z,37.42
2019-03-30T18:36:27.040Z,37.54
2019-03-30T18:39:10.374Z,37.78
2019-03-30T18:42:01.358Z,38.42
2019-03-30T18:44:44.820Z,39.03
2019-03-30T18:47:35.755Z,39.23
2019-03-30T18:50:19.402Z,39.50
2019-03-30T18:56:13.938Z,40.08
2019-03-30T18:58:57.320Z,40.43
2019-03-30T19:01:48.277Z,40.67
2019-03-30T19:04:31.936Z,40.83
2019-03-30T19:07:22.859Z,40.86
2019-03-30T19:10:06.597Z,41.08
2019-03-30T19:12:57.517Z,41.21
2019-03-30T19:15:41.253Z,41.31
2019-03-30T19:18:32.131Z,41.56
2019-03-30T19:21:15.311Z,41.87
2019-03-30T19:24:25.028Z,42.48
2019-03-30T19:27:08.570Z,42.96
2019-03-30T19:29:58.014Z,42.94
2019-03-30T19:32:41.551Z,43.23
2019-03-30T19:35:32.451Z,43.56
2019-03-30T19:38:15.967Z,43.71
2019-03-30T19:41:06.853Z,43.94
2019-03-30T19:43:49.873Z,44.32
2019-03-30T19:46:22.053Z,44.67
2019-03-30T19:49:13.000Z,45.12
2019-03-30T19:51:55.839Z,45.50
2019-03-30T19:55:05.593Z,45.87
2019-03-30T19:57:48.550Z,46.17
2019-03-30T20:00:39.464Z,45.89
2019-03-30T20:03:22.599Z,45.52
2019-03-30T20:06:13.545Z,45.85
2019-03-30T20:08:56.732Z,46.18
2019-03-30T20:11:47.668Z,46.33
2019-03-30T20:14:31.100Z,46.53
2019-03-30T20:17:22.015Z,47.04
2019-03-30T20:20:05.489Z,47.23
2019-03-30T20:22:56.396Z,47.26
2019-03-30T20:25:39.540Z,47.96
2019-03-30T20:28:30.505Z,48.06
2019-03-30T20:31:13.530Z,48.50
2019-03-30T20:37:52.408Z,48.81
2019-03-30T20:40:43.335Z,50.00
2019-03-30T20:43:26.395Z,50.07
2019-03-30T20:46:17.371Z,49.77
2019-03-30T20:49:01.057Z,49.91
2019-03-30T20:51:51.989Z,50.54
2019-03-30T20:54:34.927Z,50.59
2019-03-30T20:57:17.948Z,50.34
2019-03-30T21:03:36.765Z,50.50
2019-03-30T21:06:27.636Z,51.05
2019-03-30T21:09:18.643Z,51.51
2019-03-30T21:12:02.099Z,51.48
2019-03-30T21:14:53.024Z,51.75
2019-03-30T21:17:35.966Z,51.75
2019-03-30T21:20:26.832Z,51.97
2019-03-30T21:23:10.072Z,51.52
2019-03-30T21:26:01.040Z,51.43
2019-03-30T21:29:11.876Z,52.08
2019-03-30T21:32:02.268Z,52.35
2019-03-30T21:34:53.200Z,51.97
2019-03-30T21:37:36.222Z,51.82
2019-03-30T21:40:27.146Z,52.17
2019-03-30T21:43:10.277Z,52.58
2019-03-30T21:46:01.227Z,52.46
2019-03-30T21:48:45.039Z,52.34
2019-03-30T21:51:35.967Z,52.34
2019-03-30T21:54:19.156Z,52.21
2019-03-30T21:57:10.091Z,51.99
2019-03-30T21:59:53.033Z,51.96
2019-03-30T22:02:43.953Z,52.01
2019-03-30T22:05:26.904Z,51.90
2019-03-30T22:08:17.806Z,52.23
2019-03-30T22:11:00.691Z,51.67
2019-03-30T22:13:51.635Z,52.46
2019-03-30T22:16:34.786Z,52.85
2019-03-30T22:19:06.909Z,52.84
2019-03-30T22:21:57.836Z,52.71
2019-03-30T22:24:48.740Z,52.95
2019-03-30T22:27:32.266Z,53.55
2019-03-30T22:30:24.966Z,53.38
2019-03-30T22:33:31.601Z,53.58
2019-03-30T22:39:24.754Z,53.64
2019-03-30T22:42:15.650Z,54.09
2019-03-30T22:44:59.320Z,53.94
2019-03-30T22:47:50.243Z,55.50
2019-03-30T22:50:33.984Z,54.14
2019-03-30T22:53:24.978Z,53.64
2019-03-30T22:56:08.576Z,53.77
2019-03-30T22:58:59.496Z,54.03
2019-03-30T23:01:42.434Z,54.96
2019-03-30T23:04:33.348Z,55.57
2019-03-30T23:07:16.865Z,55.12
2019-03-30T23:10:07.978Z,55.05
2019-03-30T23:12:51.291Z,55.46
2019-03-30T23:15:42.232Z,56.37
2019-03-30T23:18:25.178Z,56.58
2019-03-30T23:21:16.073Z,56.70
2019-03-30T23:23:59.083Z,56.73
2019-03-30T23:26:49.998Z,56.51
2019-03-30T23:29:33.158Z,56.52
2019-03-30T23:32:26.601Z,56.42
2019-03-30T23:35:09.702Z,56.78
2019-03-30T23:38:00.606Z,57.35
2019-03-30T23:40:44.357Z,57.63
2019-03-30T23:43:35.247Z,57.79
2019-03-30T23:46:18.886Z,58.37
2019-03-30T23:49:09.792Z,58.38
2019-03-30T23:51:53.620Z,58.47
2019-03-30T23:54:44.493Z,58.94
2019-03-30T23:57:27.712Z,58.98
